createdAt,value
2018-05-02T00:01:58.236Z,2.80
2018-05-02T00:04:24.710Z,2.80
2018-05-02T00:06:51.233Z,2.60
2018-05-02T00:09:17.703Z,2.40
2018-05-02T00:11:44.175Z,3.00
2018-05-02T00:14:10.656Z,2.90
2018-05-02T00:16:37.115Z,3.20
2018-05-02T00:19:03.679Z,2.47
2018-05-02T00:21:30.144Z,2.70
2018-05-02T00:23:56.628Z,2.97
2018-05-02T00:26:23.108Z,3.10
2018-05-02T00:28:49.551Z,3.10
2018-05-02T00:31:16.033Z,2.90
2018-05-02T00:33:42.600Z,3.00
2018-05-02T00:36:09.085Z,2.50
2018-05-02T00:38:35.571Z,2.50
2018-05-02T00:41:02.053Z,2.93
2018-05-02T00:43:28.546Z,2.60
2018-05-02T00:45:55.752Z,3.20
2018-05-02T00:48:22.251Z,3.10
2018-05-02T00:50:49.473Z,3.10
2018-05-02T00:53:15.935Z,2.70
2018-05-02T00:55:43.229Z,2.80
2018-05-02T00:58:09.717Z,3.30
2018-05-02T01:00:36.228Z,3.57
2018-05-02T01:03:02.721Z,2.60
2018-05-02T01:05:29.961Z,2.73
2018-05-02T01:07:56.450Z,2.63
2018-05-02T01:10:22.970Z,2.80
2018-05-02T01:12:49.407Z,3.27
2018-05-02T01:15:15.904Z,3.83
2018-05-02T01:17:42.381Z,2.60
2018-05-02T01:20:08.883Z,2.80
2018-05-02T01:22:35.352Z,2.80
2018-05-02T01:25:01.809Z,2.67
2018-05-02T01:27:28.293Z,3.50
2018-05-02T01:29:54.754Z,3.07
2018-05-02T01:32:21.966Z,2.97
2018-05-02T01:34:48.444Z,2.97
2018-05-02T01:37:15.671Z,2.70
2018-05-02T01:39:42.135Z,3.10
2018-05-02T01:42:09.388Z,3.73
2018-05-02T01:44:36.581Z,3.00
2018-05-02T01:47:03.091Z,2.93
2018-05-02T01:49:30.325Z,3.37
2018-05-02T01:51:56.780Z,3.20
2018-05-02T01:54:24.019Z,2.80
2018-05-02T01:56:50.474Z,3.50
2018-05-02T01:59:17.661Z,3.47
2018-05-02T02:01:44.144Z,3.80
2018-05-02T02:04:10.589Z,2.93
2018-05-02T02:06:37.064Z,3.00
2018-05-02T02:09:04.491Z,3.10
2018-05-02T02:11:30.969Z,2.70
2018-05-02T02:13:57.488Z,4.20
2018-05-02T02:16:24.718Z,3.10
2018-05-02T02:18:51.190Z,3.27
2018-05-02T02:21:18.387Z,2.70
2018-05-02T02:23:44.878Z,3.70
2018-05-02T02:26:11.364Z,2.87
2018-05-02T02:28:37.891Z,3.10
2018-05-02T02:31:04.462Z,2.90
2018-05-02T02:33:30.992Z,2.93
2018-05-02T02:35:57.511Z,3.80
2018-05-02T02:38:24.033Z,3.87
2018-05-02T02:40:50.519Z,3.30
2018-05-02T02:43:16.978Z,2.70
2018-05-02T02:45:44.203Z,2.80
2018-05-02T02:48:11.418Z,3.07
2018-05-02T02:50:37.903Z,2.63
2018-05-02T02:53:04.371Z,3.40
2018-05-02T02:55:31.589Z,2.83
2018-05-02T02:57:58.982Z,2.93
2018-05-02T03:00:26.213Z,3.10
2018-05-02T03:02:52.674Z,3.07
2018-05-02T03:05:19.901Z,3.20
2018-05-02T03:07:46.366Z,3.00
2018-05-02T03:10:13.591Z,3.63
2018-05-02T03:12:40.065Z,2.90
2018-05-02T03:15:07.313Z,2.73
2018-05-02T03:17:33.774Z,2.80
2018-05-02T03:20:00.666Z,3.17
2018-05-02T03:22:27.133Z,3.60
2018-05-02T03:24:53.644Z,3.90
2018-05-02T03:27:20.095Z,4.10
2018-05-02T03:29:46.571Z,3.40
2018-05-02T03:32:13.806Z,3.73
2018-05-02T03:34:40.276Z,3.77
2018-05-02T03:37:06.761Z,3.27
2018-05-02T03:39:33.256Z,3.50
2018-05-02T03:41:59.733Z,4.00
2018-05-02T03:44:26.215Z,3.27
2018-05-02T03:46:52.711Z,3.40
2018-05-02T03:49:19.163Z,3.53
2018-05-02T03:51:45.651Z,3.77
2018-05-02T03:54:12.127Z,3.50
2018-05-02T03:56:38.605Z,3.40
2018-05-02T03:59:05.873Z,3.80
2018-05-02T04:04:58.914Z,3.40
2018-05-02T04:07:25.376Z,2.83
2018-05-02T04:09:52.632Z,2.97
2018-05-02T04:12:19.907Z,3.43
2018-05-02T04:14:46.353Z,3.60
2018-05-02T04:17:12.863Z,3.23
2018-05-02T04:19:40.048Z,4.00
2018-05-02T04:22:06.563Z,3.63
2018-05-02T04:24:33.777Z,3.50
2018-05-02T04:27:00.284Z,3.20
2018-05-02T04:29:26.756Z,3.80
2018-05-02T04:31:53.264Z,4.00
2018-05-02T04:34:19.716Z,4.13
2018-05-02T04:36:46.202Z,3.70
2018-05-02T04:39:13.463Z,3.20
2018-05-02T04:41:40.686Z,3.73
2018-05-02T04:44:07.217Z,3.63
2018-05-02T04:46:33.681Z,4.30
2018-05-02T04:49:00.146Z,3.83
2018-05-02T04:51:26.621Z,3.87
2018-05-02T04:53:53.076Z,3.90
2018-05-02T04:56:19.595Z,4.30
2018-05-02T04:58:46.121Z,3.77
2018-05-02T05:01:12.640Z,3.60
2018-05-02T05:03:39.829Z,3.43
2018-05-02T05:06:06.347Z,3.60
2018-05-02T05:08:32.836Z,3.80
2018-05-02T05:10:59.285Z,3.67
2018-05-02T05:13:25.761Z,4.10
2018-05-02T05:15:52.218Z,3.47
2018-05-02T05:18:18.681Z,3.93
2018-05-02T05:20:45.201Z,3.70
2018-05-02T05:23:11.670Z,3.10
2018-05-02T05:25:38.146Z,3.33
2018-05-02T05:28:04.668Z,3.90
2018-05-02T05:30:31.904Z,3.80
2018-05-02T05:32:58.379Z,3.50
2018-05-02T05:35:24.840Z,4.23
2018-05-02T05:37:51.294Z,3.73
2018-05-02T05:40:17.793Z,3.53
2018-05-02T05:42:44.287Z,4.20
2018-05-02T05:45:10.810Z,4.20
2018-05-02T05:47:37.269Z,4.00
2018-05-02T05:50:03.782Z,4.43
2018-05-02T05:52:30.248Z,4.13
2018-05-02T05:54:56.704Z,3.87
2018-05-02T05:57:23.941Z,3.40
2018-05-02T05:59:50.450Z,3.87
2018-05-02T06:02:16.943Z,3.80
2018-05-02T06:04:44.530Z,3.93
2018-05-02T06:07:11.037Z,3.83
2018-05-02T06:09:38.286Z,3.43
2018-05-02T06:12:04.817Z,3.23
2018-05-02T06:14:31.295Z,3.57
2018-05-02T06:16:57.745Z,4.00
2018-05-02T06:19:24.267Z,3.20
2018-05-02T06:21:50.781Z,3.80
2018-05-02T06:24:17.282Z,3.93
2018-05-02T06:26:43.742Z,3.57
2018-05-02T06:29:10.316Z,3.77
2018-05-02T06:31:37.509Z,3.73
2018-05-02T06:34:04.002Z,3.10
2018-05-02T06:36:31.229Z,3.77
2018-05-02T06:38:57.695Z,2.73
2018-05-02T06:41:26.133Z,3.73
2018-05-02T06:43:55.466Z,3.00
2018-05-02T06:46:21.942Z,3.17
2018-05-02T06:48:48.409Z,2.90
2018-05-02T06:51:14.978Z,3.60
2018-05-02T06:53:41.523Z,3.03
2018-05-02T06:56:08.044Z,2.80
2018-05-02T06:58:35.537Z,3.07
2018-05-02T07:01:02.993Z,3.43
2018-05-02T07:03:30.202Z,3.50
2018-05-02T07:05:56.681Z,3.10
2018-05-02T07:08:23.245Z,3.50
2018-05-02T07:10:49.711Z,2.70
2018-05-02T07:13:16.161Z,3.00
2018-05-02T07:15:42.881Z,3.30
2018-05-02T07:18:09.391Z,3.30
2018-05-02T07:20:36.724Z,3.13
2018-05-02T07:23:03.296Z,4.00
2018-05-02T07:25:30.493Z,3.43
2018-05-02T07:27:57.052Z,4.17
2018-05-02T07:30:23.551Z,3.47
2018-05-02T07:32:50.153Z,3.97
2018-05-02T07:35:16.599Z,3.63
2018-05-02T07:37:44.197Z,4.13
2018-05-02T07:40:10.673Z,4.40
2018-05-02T07:42:37.194Z,4.10
2018-05-02T07:45:03.654Z,3.70
2018-05-02T07:47:30.099Z,3.10
2018-05-02T07:49:56.635Z,3.87
2018-05-02T07:52:23.344Z,3.50
2018-05-02T07:54:49.862Z,3.50
2018-05-02T07:57:16.309Z,3.70
2018-05-02T07:59:42.775Z,3.47
2018-05-02T08:02:09.349Z,3.90
2018-05-02T08:04:36.549Z,4.03
2018-05-02T08:07:03.027Z,4.50
2018-05-02T08:09:29.520Z,4.50
2018-05-02T08:11:55.975Z,4.17
2018-05-02T08:14:22.432Z,3.83
2018-05-02T08:16:48.904Z,3.60
2018-05-02T08:19:16.138Z,4.00
2018-05-02T08:21:42.634Z,3.63
2018-05-02T08:24:09.084Z,4.13
2018-05-02T08:26:35.588Z,4.17
2018-05-02T08:29:02.053Z,4.10
2018-05-02T08:31:28.532Z,4.40
2018-05-02T08:33:55.009Z,3.60
2018-05-02T08:36:21.476Z,3.30
2018-05-02T08:38:47.984Z,3.67
2018-05-02T08:41:14.535Z,3.80
2018-05-02T08:43:41.034Z,3.17
2018-05-02T08:46:07.553Z,3.63
2018-05-02T08:48:34.041Z,4.30
2018-05-02T08:51:00.526Z,3.97
2018-05-02T08:53:27.019Z,4.10
2018-05-02T08:55:53.505Z,4.90
2018-05-02T08:58:19.945Z,4.60
2018-05-02T09:00:46.412Z,5.10
2018-05-02T09:03:13.659Z,4.23
2018-05-02T09:05:40.862Z,4.07
2018-05-02T09:08:07.361Z,4.03
2018-05-02T09:10:34.596Z,4.43
2018-05-02T09:13:01.073Z,4.13
2018-05-02T09:15:27.623Z,4.10
2018-05-02T09:17:54.011Z,3.40
2018-05-02T09:20:20.545Z,3.33
2018-05-02T09:22:48.153Z,3.37
2018-05-02T09:25:14.645Z,3.77
2018-05-02T09:27:41.154Z,4.00
2018-05-02T09:30:07.617Z,4.40
2018-05-02T09:32:34.091Z,4.20
2018-05-02T09:35:01.315Z,4.83
2018-05-02T09:37:27.783Z,4.90
2018-05-02T09:39:55.010Z,5.20
2018-05-02T09:42:21.516Z,4.70
2018-05-02T09:44:55.000Z,5.80
2018-05-02T09:47:21.492Z,4.63
2018-05-02T09:49:47.950Z,5.00
2018-05-02T09:52:15.165Z,5.20
2018-05-02T09:54:41.643Z,4.37
2018-05-02T09:57:09.238Z,4.70
2018-05-02T09:59:35.759Z,4.83
2018-05-02T10:02:03.072Z,5.00
2018-05-02T10:04:29.606Z,5.60
2018-05-02T10:06:56.063Z,5.33
2018-05-02T10:09:22.555Z,5.07
2018-05-02T10:11:49.034Z,5.97
2018-05-02T10:14:15.564Z,5.33
2018-05-02T10:16:42.089Z,5.47
2018-05-02T10:19:08.547Z,5.27
2018-05-02T10:21:35.029Z,5.50
2018-05-02T10:24:01.527Z,5.13
2018-05-02T10:26:28.101Z,6.07
2018-05-02T10:28:55.332Z,5.80
2018-05-02T10:31:22.596Z,6.13
2018-05-02T10:33:49.074Z,5.27
2018-05-02T10:36:15.561Z,5.40
2018-05-02T10:38:42.128Z,5.33
2018-05-02T10:41:09.351Z,5.13
2018-05-02T10:43:35.835Z,5.77
2018-05-02T10:46:02.337Z,5.60
2018-05-02T10:48:28.868Z,5.67
2018-05-02T10:50:55.406Z,6.00
2018-05-02T10:53:21.895Z,6.30
2018-05-02T10:55:48.362Z,6.70
2018-05-02T10:58:14.936Z,6.37
2018-05-02T11:00:41.381Z,7.00
2018-05-02T11:03:07.946Z,7.10
2018-05-02T11:05:35.653Z,6.37
2018-05-02T11:08:02.128Z,6.77
2018-05-02T11:10:29.389Z,5.83
2018-05-02T11:12:56.689Z,6.80
2018-05-02T11:15:23.165Z,6.30
2018-05-02T11:17:49.656Z,6.40
2018-05-02T11:20:16.279Z,7.20
2018-05-02T11:22:43.478Z,6.37
2018-05-02T11:25:10.336Z,6.20
2018-05-02T11:27:36.801Z,5.57
2018-05-02T11:30:04.437Z,4.90
2018-05-02T11:32:31.059Z,5.07
2018-05-02T11:34:57.569Z,4.70
2018-05-02T11:37:24.104Z,5.10
2018-05-02T11:39:51.357Z,6.20
2018-05-02T11:42:18.576Z,5.53
2018-05-02T11:44:45.043Z,6.27
2018-05-02T11:47:12.277Z,5.10
2018-05-02T11:49:38.768Z,4.87
2018-05-02T11:52:05.269Z,5.60
2018-05-02T11:54:32.519Z,5.40
2018-05-02T11:56:59.022Z,5.70
2018-05-02T11:59:25.492Z,5.37
2018-05-02T12:01:51.966Z,5.73
2018-05-02T12:04:18.469Z,4.83
2018-05-02T12:06:44.978Z,5.10
2018-05-02T12:09:11.433Z,5.13
2018-05-02T12:11:37.904Z,5.53
2018-05-02T12:14:05.151Z,5.30
2018-05-02T12:16:32.396Z,5.83
2018-05-02T12:18:58.890Z,5.50
2018-05-02T12:21:25.414Z,5.10
2018-05-02T12:23:51.875Z,6.33
2018-05-02T12:26:18.361Z,7.00
2018-05-02T12:28:45.599Z,5.80
2018-05-02T12:31:12.067Z,5.60
2018-05-02T12:33:39.260Z,5.83
2018-05-02T12:36:05.782Z,5.70
2018-05-02T12:38:32.240Z,6.13
2018-05-02T12:40:58.726Z,6.70
2018-05-02T12:43:25.956Z,5.77
2018-05-02T12:45:52.423Z,5.83
2018-05-02T12:48:19.669Z,7.83
2018-05-02T12:50:46.188Z,7.23
2018-05-02T12:53:12.688Z,8.17
2018-05-02T12:55:39.160Z,7.30
2018-05-02T12:58:05.653Z,6.63
2018-05-02T13:00:32.171Z,7.33
2018-05-02T13:02:59.404Z,7.40
2018-05-02T13:05:25.937Z,6.63
2018-05-02T13:07:52.426Z,8.30
2018-05-02T13:10:18.935Z,9.70
2018-05-02T13:12:45.475Z,9.50
2018-05-02T13:15:12.007Z,10.30
2018-05-02T13:17:38.505Z,9.90
2018-05-02T13:20:05.027Z,10.20
2018-05-02T13:22:32.435Z,11.43
2018-05-02T13:24:58.917Z,9.30
2018-05-02T13:27:25.427Z,9.50
2018-05-02T13:29:51.884Z,9.20
2018-05-02T13:32:19.111Z,8.63
2018-05-02T13:34:45.697Z,8.97
2018-05-02T13:37:12.155Z,9.00
2018-05-02T13:39:38.636Z,8.77
2018-05-02T13:42:05.158Z,9.23
2018-05-02T13:44:31.691Z,9.17
2018-05-02T13:46:58.191Z,8.97
2018-05-02T13:49:24.695Z,9.13
2018-05-02T13:51:51.203Z,8.97
2018-05-02T13:54:17.694Z,9.80
2018-05-02T13:56:44.880Z,8.70
2018-05-02T13:59:11.373Z,8.80
2018-05-02T14:01:38.613Z,9.23
2018-05-02T14:04:05.086Z,8.43
2018-05-02T14:06:32.336Z,8.60
2018-05-02T14:08:59.546Z,10.13
2018-05-02T14:11:26.027Z,9.47
2018-05-02T14:13:53.279Z,8.97
2018-05-02T14:16:20.522Z,8.47
2018-05-02T14:18:47.730Z,8.60
2018-05-02T14:21:14.229Z,8.80
2018-05-02T14:23:41.437Z,9.20
2018-05-02T14:26:07.902Z,9.30
2018-05-02T14:28:34.389Z,8.23
2018-05-02T14:31:00.855Z,8.37
2018-05-02T14:33:27.337Z,8.87
2018-05-02T14:35:54.580Z,8.97
2018-05-02T14:38:21.108Z,8.00
2018-05-02T14:40:47.636Z,8.07
2018-05-02T14:43:14.117Z,8.63
2018-05-02T14:45:41.333Z,8.93
2018-05-02T14:48:07.779Z,9.20
2018-05-02T14:50:34.260Z,9.77
2018-05-02T14:53:00.712Z,9.37
2018-05-02T14:55:27.193Z,8.87
2018-05-02T14:57:53.699Z,9.10
2018-05-02T15:00:20.194Z,8.67
2018-05-02T15:02:47.410Z,9.47
2018-05-02T15:05:13.902Z,9.37
2018-05-02T15:07:40.409Z,8.90
2018-05-02T15:10:06.896Z,9.33
2018-05-02T15:12:33.420Z,8.57
2018-05-02T15:14:59.925Z,8.60
2018-05-02T15:17:26.461Z,9.33
2018-05-02T15:19:52.951Z,9.00
2018-05-02T15:22:19.425Z,8.53
2018-05-02T15:24:45.927Z,8.73
2018-05-02T15:27:12.419Z,8.83
2018-05-02T15:29:38.933Z,8.47
2018-05-02T15:32:05.401Z,9.10
2018-05-02T15:34:31.897Z,8.83
2018-05-02T15:36:58.380Z,9.00
2018-05-02T15:39:24.892Z,9.40
2018-05-02T15:41:51.425Z,8.10
2018-05-02T15:44:17.931Z,9.00
2018-05-02T15:46:44.505Z,8.33
2018-05-02T15:49:11.015Z,8.30
2018-05-02T15:51:37.485Z,8.90
2018-05-02T15:54:04.015Z,8.30
2018-05-02T15:56:30.517Z,8.43
2018-05-02T15:58:57.020Z,8.50
2018-05-02T16:01:23.504Z,9.00
2018-05-02T16:03:50.016Z,7.93
2018-05-02T16:06:17.250Z,9.37
2018-05-02T16:08:43.789Z,9.60
2018-05-02T16:11:10.316Z,9.40
2018-05-02T16:13:36.785Z,8.63
2018-05-02T16:16:04.172Z,9.10
2018-05-02T16:18:30.706Z,8.80
2018-05-02T16:20:58.972Z,8.80
2018-05-02T16:23:26.228Z,8.53
2018-05-02T16:25:53.450Z,9.10
2018-05-02T16:28:19.981Z,9.50
2018-05-02T16:30:46.446Z,8.93
2018-05-02T16:33:13.003Z,8.63
2018-05-02T16:35:39.438Z,8.57
2018-05-02T16:38:06.697Z,8.83
2018-05-02T16:40:33.959Z,8.87
2018-05-02T16:43:01.206Z,9.00
2018-05-02T16:45:28.416Z,9.43
2018-05-02T16:47:54.898Z,8.30
2018-05-02T16:50:22.142Z,8.90
2018-05-02T16:52:48.630Z,8.90
2018-05-02T16:55:15.098Z,9.00
2018-05-02T16:57:41.552Z,8.40
2018-05-02T17:00:08.118Z,8.93
2018-05-02T17:02:35.391Z,9.23
2018-05-02T17:05:02.020Z,8.53
2018-05-02T17:07:28.541Z,8.20
2018-05-02T17:09:55.814Z,9.40
2018-05-02T17:12:23.065Z,8.37
2018-05-02T17:14:50.295Z,8.57
2018-05-02T17:17:16.797Z,8.63
2018-05-02T17:19:43.250Z,8.40
2018-05-02T17:22:09.796Z,8.73
2018-05-02T17:24:36.916Z,7.90
2018-05-02T17:27:03.421Z,9.00
2018-05-02T17:29:30.623Z,9.10
2018-05-02T17:31:57.160Z,9.00
2018-05-02T17:34:23.637Z,9.37
2018-05-02T17:36:50.115Z,9.33
2018-05-02T17:39:16.622Z,9.00
2018-05-02T17:41:43.196Z,9.17
2018-05-02T17:44:09.714Z,9.10
2018-05-02T17:46:36.959Z,11.13
2018-05-02T17:49:03.509Z,10.70
2018-05-02T17:51:30.766Z,10.73
2018-05-02T17:53:58.064Z,11.10
2018-05-02T17:56:24.599Z,10.70
2018-05-02T17:58:51.102Z,11.00
2018-05-02T18:01:18.371Z,10.80
2018-05-02T18:03:45.600Z,10.50
2018-05-02T18:06:12.171Z,10.30
2018-05-02T18:08:38.684Z,10.03
2018-05-02T18:11:05.956Z,11.00
2018-05-02T18:13:33.196Z,10.20
2018-05-02T18:15:59.890Z,11.30
2018-05-02T18:18:26.339Z,10.23
2018-05-02T18:20:52.815Z,11.50
2018-05-02T18:23:20.070Z,11.17
2018-05-02T18:25:46.572Z,12.43
2018-05-02T18:28:13.029Z,11.63
2018-05-02T18:30:39.518Z,12.50
2018-05-02T18:33:05.983Z,10.97
2018-05-02T18:35:32.459Z,11.30
2018-05-02T18:37:59.676Z,12.20
2018-05-02T18:40:26.156Z,10.83
2018-05-02T18:42:53.446Z,11.27
2018-05-02T18:45:19.915Z,9.93
2018-05-02T18:47:46.473Z,10.73
2018-05-02T18:50:12.966Z,10.33
2018-05-02T18:52:39.478Z,10.23
2018-05-02T18:55:06.760Z,10.03
2018-05-02T18:57:33.250Z,10.87
2018-05-02T18:59:59.728Z,9.47
2018-05-02T19:02:26.196Z,11.10
2018-05-02T19:04:52.721Z,9.43
2018-05-02T19:07:19.221Z,11.30
2018-05-02T19:09:46.766Z,10.10
2018-05-02T19:12:13.377Z,9.53
2018-05-02T19:14:39.874Z,10.00
2018-05-02T19:17:07.068Z,10.10
2018-05-02T19:19:39.621Z,10.30
2018-05-02T19:22:06.120Z,10.97
2018-05-02T19:24:38.694Z,12.47
2018-05-02T19:27:05.236Z,11.80
2018-05-02T19:29:32.531Z,10.47
2018-05-02T19:32:05.276Z,11.43
2018-05-02T19:34:31.825Z,11.40
2018-05-02T19:36:58.428Z,12.27
2018-05-02T19:39:24.960Z,12.13
2018-05-02T19:41:57.403Z,12.63
2018-05-02T19:44:24.056Z,12.30
2018-05-02T19:46:51.302Z,11.70
2018-05-02T19:49:18.589Z,12.73
2018-05-02T19:51:51.118Z,12.80
2018-05-02T19:54:17.745Z,14.33
2018-05-02T19:56:44.217Z,13.80
2018-05-02T19:59:11.452Z,14.47
2018-05-02T20:01:43.869Z,14.63
2018-05-02T20:04:11.168Z,16.67
2018-05-02T20:06:38.450Z,19.20
2018-05-02T20:09:11.107Z,16.10
2018-05-02T20:11:43.713Z,15.37
2018-05-02T20:14:10.277Z,15.73
2018-05-02T20:16:37.610Z,15.40
2018-05-02T20:19:04.201Z,13.27
2018-05-02T20:21:30.682Z,14.30
2018-05-02T20:23:57.182Z,15.53
2018-05-02T20:26:23.707Z,14.13
2018-05-02T20:28:50.286Z,13.67
2018-05-02T20:31:16.889Z,14.80
2018-05-02T20:33:43.433Z,15.73
2018-05-02T20:36:11.247Z,14.70
2018-05-02T20:38:37.819Z,14.87
2018-05-02T20:41:05.105Z,13.77
2018-05-02T20:43:31.633Z,15.80
2018-05-02T20:45:58.142Z,15.00
2018-05-02T20:48:24.688Z,15.50
2018-05-02T20:50:52.177Z,15.40
2018-05-02T20:53:18.814Z,14.70
2018-05-02T20:55:46.050Z,12.57
2018-05-02T20:58:13.340Z,13.77
2018-05-02T21:00:39.852Z,11.90
2018-05-02T21:03:07.061Z,11.77
2018-05-02T21:05:33.682Z,11.07
2018-05-02T21:08:00.186Z,11.90
2018-05-02T21:10:27.443Z,10.87
2018-05-02T21:12:54.732Z,11.70
2018-05-02T21:15:21.260Z,11.10
2018-05-02T21:17:47.756Z,13.40
2018-05-02T21:20:14.229Z,11.30
2018-05-02T21:22:41.486Z,10.60
2018-05-02T21:25:08.061Z,11.23
2018-05-02T21:27:34.585Z,10.63
2018-05-02T21:30:01.148Z,11.03
2018-05-02T21:32:27.705Z,10.00
2018-05-02T21:34:54.369Z,10.10
2018-05-02T21:37:20.859Z,10.83
2018-05-02T21:39:47.372Z,10.60
2018-05-02T21:42:13.886Z,12.13
2018-05-02T21:44:41.129Z,13.93
2018-05-02T21:47:07.644Z,11.10
2018-05-02T21:49:34.243Z,11.53
2018-05-02T21:52:07.744Z,10.33
2018-05-02T21:54:34.270Z,9.37
2018-05-02T21:57:01.548Z,10.30
2018-05-02T21:59:28.050Z,10.47
2018-05-02T22:01:54.555Z,10.30
2018-05-02T22:04:21.025Z,8.60
2018-05-02T22:06:47.500Z,9.17
2018-05-02T22:09:14.006Z,10.07
2018-05-02T22:11:40.537Z,10.20
2018-05-02T22:14:07.047Z,10.13
2018-05-02T22:16:33.558Z,9.80
2018-05-02T22:19:00.032Z,9.43
2018-05-02T22:21:26.494Z,9.27
2018-05-02T22:23:53.017Z,8.87
2018-05-02T22:26:19.516Z,9.07
2018-05-02T22:28:45.965Z,9.43
2018-05-02T22:31:12.619Z,9.00
2018-05-02T22:33:39.145Z,9.47
2018-05-02T22:36:05.632Z,8.97
2018-05-02T22:38:32.096Z,9.53
2018-05-02T22:40:59.382Z,10.23
2018-05-02T22:43:25.907Z,9.00
2018-05-02T22:45:52.473Z,10.27
2018-05-02T22:48:18.924Z,9.67
2018-05-02T22:50:45.396Z,10.97
2018-05-02T22:53:12.594Z,9.70
2018-05-02T22:55:39.101Z,10.53
2018-05-02T22:58:06.288Z,9.53
2018-05-02T23:00:32.754Z,9.37
2018-05-02T23:02:59.277Z,8.70
2018-05-02T23:05:26.514Z,9.30
2018-05-02T23:07:53.040Z,8.73
2018-05-02T23:10:19.533Z,9.50
2018-05-02T23:12:46.041Z,9.10
2018-05-02T23:15:12.529Z,8.73
2018-05-02T23:17:39.713Z,8.30
2018-05-02T23:20:06.217Z,8.83
2018-05-02T23:22:32.679Z,9.37
2018-05-02T23:24:59.159Z,9.33
2018-05-02T23:27:25.619Z,9.93
2018-05-02T23:29:52.177Z,9.40
2018-05-02T23:32:19.388Z,9.20
2018-05-02T23:34:45.881Z,9.40
2018-05-02T23:37:13.097Z,8.60
2018-05-02T23:39:39.552Z,9.40
2018-05-02T23:42:06.016Z,9.23
2018-05-02T23:44:33.204Z,11.07
2018-05-02T23:46:59.736Z,9.80
2018-05-02T23:49:26.257Z,10.23
2018-05-02T23:51:52.766Z,10.00
2018-05-02T23:54:19.213Z,8.43
2018-05-02T23:56:46.421Z,9.10
2018-05-02T23:59:12.884Z,9.07
